sensor_id;sensor_type;location;lat;lon;timestamp;P1;durP1;ratioP1;P2;durP2;ratioP2
25687;SDS011;17407;51.120;3.702;2023-02-02T02:08:59;34.72;;;5.65;;
25687;SDS011;17407;51.120;3.702;2023-02-02T03:01:05;24.38;;;4.43;;
25687;SDS011;17407;51.120;3.702;2023-02-02T09:32:50;18.60;;;4.13;;
25687;SDS011;17407;51.120;3.702;2023-02-02T09:35:16;14.32;;;4.60;;
25687;SDS011;17407;51.120;3.702;2023-02-02T09:37:42;12.63;;;3.45;;
25687;SDS011;17407;51.120;3.702;2023-02-02T09:40:12;11.52;;;3.75;;
25687;SDS011;17407;51.120;3.702;2023-02-02T09:42:50;15.43;;;3.10;;
25687;SDS011;17407;51.120;3.702;2023-02-02T09:48:21;11.48;;;2.97;;
25687;SDS011;17407;51.120;3.702;2023-02-02T09:51:15;16.35;;;3.85;;
25687;SDS011;17407;51.120;3.702;2023-02-02T09:56:25;13.18;;;3.63;;
25687;SDS011;17407;51.120;3.702;2023-02-02T09:58:57;13.60;;;3.22;;
25687;SDS011;17407;51.120;3.702;2023-02-02T10:01:35;15.27;;;3.75;;
25687;SDS011;17407;51.120;3.702;2023-02-02T10:06:55;13.85;;;3.55;;
25687;SDS011;17407;51.120;3.702;2023-02-02T10:12:12;10.82;;;3.35;;
25687;SDS011;17407;51.120;3.702;2023-02-02T10:20:43;18.58;;;4.25;;
25687;SDS011;17407;51.120;3.702;2023-02-02T10:23:29;21.05;;;4.25;;
25687;SDS011;17407;51.120;3.702;2023-02-02T10:26:16;23.63;;;3.72;;
25687;SDS011;17407;51.120;3.702;2023-02-02T10:45:13;12.32;;;3.55;;
25687;SDS011;17407;51.120;3.702;2023-02-02T10:47:42;17.75;;;4.00;;
25687;SDS011;17407;51.120;3.702;2023-02-02T10:52:37;13.38;;;3.95;;
25687;SDS011;17407;51.120;3.702;2023-02-02T10:58:06;17.65;;;4.03;;
25687;SDS011;17407;51.120;3.702;2023-02-02T11:00:40;13.52;;;3.42;;
25687;SDS011;17407;51.120;3.702;2023-02-02T11:03:18;13.48;;;3.45;;
25687;SDS011;17407;51.120;3.702;2023-02-02T11:05:46;14.10;;;3.70;;
25687;SDS011;17407;51.120;3.702;2023-02-02T11:08:32;16.65;;;3.88;;
25687;SDS011;17407;51.120;3.702;2023-02-02T11:11:18;9.70;;;3.40;;
25687;SDS011;17407;51.120;3.702;2023-02-02T11:13:53;13.88;;;3.80;;
25687;SDS011;17407;51.120;3.702;2023-02-02T11:16:30;15.88;;;3.53;;
25687;SDS011;17407;51.120;3.702;2023-02-02T11:18:57;12.38;;;2.78;;
25687;SDS011;17407;51.120;3.702;2023-02-02T11:21:24;13.82;;;4.38;;
25687;SDS011;17407;51.120;3.702;2023-02-02T11:26:24;14.48;;;3.58;;
25687;SDS011;17407;51.120;3.702;2023-02-02T11:28:51;24.80;;;4.40;;
25687;SDS011;17407;51.120;3.702;2023-02-02T11:31:29;21.90;;;4.40;;
25687;SDS011;17407;51.120;3.702;2023-02-02T11:34:07;15.88;;;3.78;;
25687;SDS011;17407;51.120;3.702;2023-02-02T11:36:33;14.02;;;3.83;;
25687;SDS011;17407;51.120;3.702;2023-02-02T11:39:32;11.38;;;3.42;;
25687;SDS011;17407;51.120;3.702;2023-02-02T11:42:01;10.25;;;2.70;;
25687;SDS011;17407;51.120;3.702;2023-02-02T11:44:31;14.00;;;3.47;;
25687;SDS011;17407;51.120;3.702;2023-02-02T11:47:02;17.40;;;2.85;;
25687;SDS011;17407;51.120;3.702;2023-02-02T11:49:29;8.82;;;2.67;;
25687;SDS011;17407;51.120;3.702;2023-02-02T11:52:00;10.45;;;3.42;;
25687;SDS011;17407;51.120;3.702;2023-02-02T11:54:36;10.38;;;3.15;;
25687;SDS011;17407;51.120;3.702;2023-02-02T11:57:08;8.73;;;2.53;;
25687;SDS011;17407;51.120;3.702;2023-02-02T11:59:38;12.93;;;2.80;;
25687;SDS011;17407;51.120;3.702;2023-02-02T12:04:49;9.35;;;2.75;;
25687;SDS011;17407;51.120;3.702;2023-02-02T12:07:17;6.93;;;2.13;;
25687;SDS011;17407;51.120;3.702;2023-02-02T12:09:49;11.18;;;3.00;;
25687;SDS011;17407;51.120;3.702;2023-02-02T12:18:34;6.55;;;1.92;;
25687;SDS011;17407;51.120;3.702;2023-02-02T12:24:01;8.15;;;2.10;;
25687;SDS011;17407;51.120;3.702;2023-02-02T12:27:12;10.52;;;2.42;;
25687;SDS011;17407;51.120;3.702;2023-02-02T12:44:00;8.20;;;2.17;;
25687;SDS011;17407;51.120;3.702;2023-02-02T12:46:46;6.63;;;2.40;;
25687;SDS011;17407;51.120;3.702;2023-02-02T12:49:21;8.25;;;1.90;;
25687;SDS011;17407;51.120;3.702;2023-02-02T12:55:03;6.97;;;1.80;;
25687;SDS011;17407;51.120;3.702;2023-02-02T13:09:27;8.57;;;2.03;;
25687;SDS011;17407;51.120;3.702;2023-02-02T13:12:10;9.35;;;2.08;;
25687;SDS011;17407;51.120;3.702;2023-02-02T13:14:42;5.57;;;2.03;;
25687;SDS011;17407;51.120;3.702;2023-02-02T13:17:22;5.43;;;2.50;;
25687;SDS011;17407;51.120;3.702;2023-02-02T13:19:54;6.93;;;2.20;;
25687;SDS011;17407;51.120;3.702;2023-02-02T13:22:25;5.45;;;2.20;;
25687;SDS011;17407;51.120;3.702;2023-02-02T13:24:58;8.20;;;2.78;;
25687;SDS011;17407;51.120;3.702;2023-02-02T13:27:26;15.02;;;3.75;;
25687;SDS011;17407;51.120;3.702;2023-02-02T13:30:12;13.18;;;4.05;;
25687;SDS011;17407;51.120;3.702;2023-02-02T13:32:46;9.23;;;4.22;;
25687;SDS011;17407;51.120;3.702;2023-02-02T14:02:29;12.30;;;3.70;;
25687;SDS011;17407;51.120;3.702;2023-02-02T14:05:06;9.98;;;3.70;;
25687;SDS011;17407;51.120;3.702;2023-02-02T14:07:42;11.20;;;4.18;;
25687;SDS011;17407;51.120;3.702;2023-02-02T14:10:29;8.02;;;3.30;;
25687;SDS011;17407;51.120;3.702;2023-02-02T14:13:19;9.80;;;3.63;;
25687;SDS011;17407;51.120;3.702;2023-02-02T14:16:04;8.65;;;4.25;;
25687;SDS011;17407;51.120;3.702;2023-02-02T14:24:01;11.88;;;4.05;;
25687;SDS011;17407;51.120;3.702;2023-02-02T14:26:51;15.00;;;3.55;;
25687;SDS011;17407;51.120;3.702;2023-02-02T14:31:55;9.32;;;3.28;;
25687;SDS011;17407;51.120;3.702;2023-02-02T14:37:00;6.40;;;3.10;;
25687;SDS011;17407;51.120;3.702;2023-02-02T14:39:30;6.18;;;3.20;;
25687;SDS011;17407;51.120;3.702;2023-02-02T14:42:08;6.22;;;2.92;;
25687;SDS011;17407;51.120;3.702;2023-02-02T14:51:01;5.63;;;3.00;;
25687;SDS011;17407;51.120;3.702;2023-02-02T14:53:48;4.75;;;3.03;;
25687;SDS011;17407;51.120;3.702;2023-02-02T15:01:12;13.05;;;3.22;;
25687;SDS011;17407;51.120;3.702;2023-02-02T15:06:43;8.53;;;3.03;;
25687;SDS011;17407;51.120;3.702;2023-02-02T15:17:02;8.10;;;2.90;;
25687;SDS011;17407;51.120;3.702;2023-02-02T15:19:34;9.95;;;2.78;;
25687;SDS011;17407;51.120;3.702;2023-02-02T15:22:28;9.30;;;3.17;;
25687;SDS011;17407;51.120;3.702;2023-02-02T15:25:00;11.00;;;3.30;;
25687;SDS011;17407;51.120;3.702;2023-02-02T15:27:31;8.07;;;3.30;;
25687;SDS011;17407;51.120;3.702;2023-02-02T15:30:00;7.35;;;3.15;;
25687;SDS011;17407;51.120;3.702;2023-02-02T15:32:31;8.13;;;3.30;;
25687;SDS011;17407;51.120;3.702;2023-02-02T15:34:59;6.07;;;3.28;;
25687;SDS011;17407;51.120;3.702;2023-02-02T15:37:29;12.07;;;3.45;;
25687;SDS011;17407;51.120;3.702;2023-02-02T15:40:04;12.20;;;3.30;;
25687;SDS011;17407;51.120;3.702;2023-02-02T15:42:48;10.13;;;3.03;;
25687;SDS011;17407;51.120;3.702;2023-02-02T15:45:41;8.45;;;2.92;;
25687;SDS011;17407;51.120;3.702;2023-02-02T15:48:11;8.10;;;3.88;;
25687;SDS011;17407;51.120;3.702;2023-02-02T15:50:44;8.55;;;3.63;;
25687;SDS011;17407;51.120;3.702;2023-02-02T15:53:15;10.88;;;3.00;;
25687;SDS011;17407;51.120;3.702;2023-02-02T15:55:43;8.00;;;3.47;;
25687;SDS011;17407;51.120;3.702;2023-02-02T15:58:26;10.20;;;3.50;;
25687;SDS011;17407;51.120;3.702;2023-02-02T16:01:00;8.50;;;3.50;;
25687;SDS011;17407;51.120;3.702;2023-02-02T16:08:51;5.05;;;2.88;;
25687;SDS011;17407;51.120;3.702;2023-02-02T16:11:20;9.60;;;3.13;;
25687;SDS011;17407;51.120;3.702;2023-02-02T16:14:00;11.13;;;3.40;;
25687;SDS011;17407;51.120;3.702;2023-02-02T16:16:32;6.78;;;3.20;;
25687;SDS011;17407;51.120;3.702;2023-02-02T16:19:00;10.23;;;3.80;;
25687;SDS011;17407;51.120;3.702;2023-02-02T16:24:23;8.80;;;3.75;;
25687;SDS011;17407;51.120;3.702;2023-02-02T16:26:51;11.00;;;3.30;;
25687;SDS011;17407;51.120;3.702;2023-02-02T16:29:18;8.15;;;3.60;;
25687;SDS011;17407;51.120;3.702;2023-02-02T16:31:45;9.55;;;3.63;;
25687;SDS011;17407;51.120;3.702;2023-02-02T16:34:16;10.75;;;3.67;;
25687;SDS011;17407;51.120;3.702;2023-02-02T16:37:03;9.57;;;4.70;;
25687;SDS011;17407;51.120;3.702;2023-02-02T16:39:39;7.22;;;4.63;;
25687;SDS011;17407;51.120;3.702;2023-02-02T16:42:09;15.45;;;4.13;;
25687;SDS011;17407;51.120;3.702;2023-02-02T16:44:49;17.08;;;4.22;;
25687;SDS011;17407;51.120;3.702;2023-02-02T16:49:50;9.23;;;4.22;;
25687;SDS011;17407;51.120;3.702;2023-02-02T16:55:37;9.70;;;4.38;;
25687;SDS011;17407;51.120;3.702;2023-02-02T16:58:03;14.43;;;4.00;;
25687;SDS011;17407;51.120;3.702;2023-02-02T17:00:29;4.85;;;3.42;;
25687;SDS011;17407;51.120;3.702;2023-02-02T17:03:02;7.82;;;3.60;;
25687;SDS011;17407;51.120;3.702;2023-02-02T17:05:36;12.35;;;4.28;;
25687;SDS011;17407;51.120;3.702;2023-02-02T17:08:11;11.68;;;4.25;;
25687;SDS011;17407;51.120;3.702;2023-02-02T17:10:37;14.07;;;4.63;;
25687;SDS011;17407;51.120;3.702;2023-02-02T17:16:09;9.30;;;4.38;;
25687;SDS011;17407;51.120;3.702;2023-02-02T17:18:37;13.50;;;4.88;;
25687;SDS011;17407;51.120;3.702;2023-02-02T17:21:04;11.75;;;4.70;;
25687;SDS011;17407;51.120;3.702;2023-02-02T17:23:31;8.35;;;3.63;;
25687;SDS011;17407;51.120;3.702;2023-02-02T17:26:04;7.13;;;3.80;;
25687;SDS011;17407;51.120;3.702;2023-02-02T17:28:35;9.70;;;4.10;;
25687;SDS011;17407;51.120;3.702;2023-02-02T17:31:06;7.22;;;4.45;;
25687;SDS011;17407;51.120;3.702;2023-02-02T17:33:34;7.93;;;4.40;;
25687;SDS011;17407;51.120;3.702;2023-02-02T17:36:00;13.60;;;4.57;;
25687;SDS011;17407;51.120;3.702;2023-02-02T17:38:26;13.82;;;4.63;;
25687;SDS011;17407;51.120;3.702;2023-02-02T17:40:53;12.65;;;4.35;;
25687;SDS011;17407;51.120;3.702;2023-02-02T17:43:22;11.93;;;4.82;;
25687;SDS011;17407;51.120;3.702;2023-02-02T17:45:47;9.45;;;4.57;;
25687;SDS011;17407;51.120;3.702;2023-02-02T17:48:14;12.18;;;4.07;;
25687;SDS011;17407;51.120;3.702;2023-02-02T17:50:41;13.25;;;4.20;;
25687;SDS011;17407;51.120;3.702;2023-02-02T17:53:10;7.18;;;3.63;;
25687;SDS011;17407;51.120;3.702;2023-02-02T17:55:39;9.80;;;4.10;;
25687;SDS011;17407;51.120;3.702;2023-02-02T17:58:09;14.38;;;4.35;;
25687;SDS011;17407;51.120;3.702;2023-02-02T18:00:37;13.48;;;3.90;;
25687;SDS011;17407;51.120;3.702;2023-02-02T18:03:08;15.35;;;4.65;;
25687;SDS011;17407;51.120;3.702;2023-02-02T18:05:47;9.85;;;4.28;;
25687;SDS011;17407;51.120;3.702;2023-02-02T18:08:13;12.25;;;4.38;;
25687;SDS011;17407;51.120;3.702;2023-02-02T18:10:40;16.50;;;5.32;;
25687;SDS011;17407;51.120;3.702;2023-02-02T18:13:06;12.07;;;4.50;;
25687;SDS011;17407;51.120;3.702;2023-02-02T18:15:32;18.60;;;5.63;;
25687;SDS011;17407;51.120;3.702;2023-02-02T18:17:59;17.10;;;3.83;;
25687;SDS011;17407;51.120;3.702;2023-02-02T18:20:26;15.23;;;4.50;;
25687;SDS011;17407;51.120;3.702;2023-02-02T18:22:53;10.50;;;4.63;;
25687;SDS011;17407;51.120;3.702;2023-02-02T18:25:19;17.08;;;4.18;;
25687;SDS011;17407;51.120;3.702;2023-02-02T18:27:44;21.63;;;4.85;;
25687;SDS011;17407;51.120;3.702;2023-02-02T18:30:11;13.15;;;4.55;;
25687;SDS011;17407;51.120;3.702;2023-02-02T18:32:38;19.83;;;4.65;;
25687;SDS011;17407;51.120;3.702;2023-02-02T18:35:05;10.77;;;4.32;;
25687;SDS011;17407;51.120;3.702;2023-02-02T18:37:32;11.13;;;4.32;;
25687;SDS011;17407;51.120;3.702;2023-02-02T18:39:59;12.85;;;4.47;;
25687;SDS011;17407;51.120;3.702;2023-02-02T18:42:25;12.18;;;5.30;;
25687;SDS011;17407;51.120;3.702;2023-02-02T18:44:56;14.63;;;5.10;;
25687;SDS011;17407;51.120;3.702;2023-02-02T18:47:22;16.25;;;4.70;;
25687;SDS011;17407;51.120;3.702;2023-02-02T18:49:48;14.30;;;4.03;;
25687;SDS011;17407;51.120;3.702;2023-02-02T18:52:13;15.70;;;4.53;;
25687;SDS011;17407;51.120;3.702;2023-02-02T18:54:39;16.23;;;4.70;;
25687;SDS011;17407;51.120;3.702;2023-02-02T18:57:05;15.10;;;3.97;;
25687;SDS011;17407;51.120;3.702;2023-02-02T18:59:31;14.07;;;4.65;;
25687;SDS011;17407;51.120;3.702;2023-02-02T19:01:58;20.08;;;5.15;;
25687;SDS011;17407;51.120;3.702;2023-02-02T19:04:24;16.73;;;4.80;;
25687;SDS011;17407;51.120;3.702;2023-02-02T19:06:49;17.60;;;3.85;;
25687;SDS011;17407;51.120;3.702;2023-02-02T19:09:33;14.63;;;4.78;;
25687;SDS011;17407;51.120;3.702;2023-02-02T19:11:59;14.93;;;4.25;;
25687;SDS011;17407;51.120;3.702;2023-02-02T19:14:30;16.50;;;3.85;;
25687;SDS011;17407;51.120;3.702;2023-02-02T19:16:59;24.63;;;4.15;;
25687;SDS011;17407;51.120;3.702;2023-02-02T19:19:36;12.75;;;3.90;;
25687;SDS011;17407;51.120;3.702;2023-02-02T19:22:18;19.65;;;4.40;;
25687;SDS011;17407;51.120;3.702;2023-02-02T19:24:46;11.30;;;4.07;;
25687;SDS011;17407;51.120;3.702;2023-02-02T19:27:16;15.00;;;3.63;;
25687;SDS011;17407;51.120;3.702;2023-02-02T19:29:48;12.02;;;3.85;;
25687;SDS011;17407;51.120;3.702;2023-02-02T19:32:16;17.08;;;3.90;;
25687;SDS011;17407;51.120;3.702;2023-02-02T19:34:46;17.30;;;5.35;;
25687;SDS011;17407;51.120;3.702;2023-02-02T19:39:55;14.82;;;4.13;;
25687;SDS011;17407;51.120;3.702;2023-02-02T19:42:44;19.10;;;4.45;;
25687;SDS011;17407;51.120;3.702;2023-02-02T19:45:22;14.50;;;3.58;;
25687;SDS011;17407;51.120;3.702;2023-02-02T19:47:52;19.50;;;4.35;;
25687;SDS011;17407;51.120;3.702;2023-02-02T19:50:25;15.00;;;3.90;;
25687;SDS011;17407;51.120;3.702;2023-02-02T19:52:53;10.55;;;3.67;;
25687;SDS011;17407;51.120;3.702;2023-02-02T19:55:22;13.18;;;3.42;;
25687;SDS011;17407;51.120;3.702;2023-02-02T19:57:50;19.13;;;3.80;;
25687;SDS011;17407;51.120;3.702;2023-02-02T20:03:00;13.77;;;3.78;;
25687;SDS011;17407;51.120;3.702;2023-02-02T20:05:35;12.80;;;3.28;;
25687;SDS011;17407;51.120;3.702;2023-02-02T20:08:25;17.58;;;4.07;;
25687;SDS011;17407;51.120;3.702;2023-02-02T20:11:14;16.55;;;3.95;;
25687;SDS011;17407;51.120;3.702;2023-02-02T20:13:46;16.23;;;4.45;;
25687;SDS011;17407;51.120;3.702;2023-02-02T20:16:20;15.15;;;4.00;;
25687;SDS011;17407;51.120;3.702;2023-02-02T20:18:51;20.85;;;4.65;;
25687;SDS011;17407;51.120;3.702;2023-02-02T20:23:58;11.43;;;4.57;;
25687;SDS011;17407;51.120;3.702;2023-02-02T20:26:25;22.13;;;4.90;;
25687;SDS011;17407;51.120;3.702;2023-02-02T20:28:54;19.42;;;5.35;;
25687;SDS011;17407;51.120;3.702;2023-02-02T20:31:23;13.65;;;4.40;;
25687;SDS011;17407;51.120;3.702;2023-02-02T20:33:53;15.50;;;4.50;;
25687;SDS011;17407;51.120;3.702;2023-02-02T20:36:36;21.40;;;4.90;;
25687;SDS011;17407;51.120;3.702;2023-02-02T20:42:06;20.42;;;5.43;;
25687;SDS011;17407;51.120;3.702;2023-02-02T20:44:32;15.52;;;5.32;;
25687;SDS011;17407;51.120;3.702;2023-02-02T20:46:59;20.13;;;5.90;;
25687;SDS011;17407;51.120;3.702;2023-02-02T20:49:25;16.55;;;5.47;;
25687;SDS011;17407;51.120;3.702;2023-02-02T20:51:56;21.70;;;5.65;;
25687;SDS011;17407;51.120;3.702;2023-02-02T20:54:24;15.65;;;4.78;;
25687;SDS011;17407;51.120;3.702;2023-02-02T20:56:50;14.18;;;5.13;;
25687;SDS011;17407;51.120;3.702;2023-02-02T20:59:16;12.98;;;5.32;;
25687;SDS011;17407;51.120;3.702;2023-02-02T21:01:43;19.13;;;5.60;;
25687;SDS011;17407;51.120;3.702;2023-02-02T21:04:09;20.30;;;5.82;;
25687;SDS011;17407;51.120;3.702;2023-02-02T21:06:36;16.50;;;6.47;;
25687;SDS011;17407;51.120;3.702;2023-02-02T21:09:04;25.13;;;6.50;;
25687;SDS011;17407;51.120;3.702;2023-02-02T21:11:31;20.95;;;6.70;;
25687;SDS011;17407;51.120;3.702;2023-02-02T21:13:57;19.65;;;7.05;;
25687;SDS011;17407;51.120;3.702;2023-02-02T21:16:24;16.45;;;6.80;;
25687;SDS011;17407;51.120;3.702;2023-02-02T21:18:50;28.40;;;6.95;;
25687;SDS011;17407;51.120;3.702;2023-02-02T21:21:16;39.92;;;7.65;;
25687;SDS011;17407;51.120;3.702;2023-02-02T21:23:43;18.42;;;6.78;;
25687;SDS011;17407;51.120;3.702;2023-02-02T21:26:14;21.85;;;8.30;;
25687;SDS011;17407;51.120;3.702;2023-02-02T21:28:41;22.25;;;8.63;;
25687;SDS011;17407;51.120;3.702;2023-02-02T21:31:08;29.23;;;10.25;;
25687;SDS011;17407;51.120;3.702;2023-02-02T21:33:34;33.80;;;8.43;;
25687;SDS011;17407;51.120;3.702;2023-02-02T21:36:02;24.27;;;8.63;;
25687;SDS011;17407;51.120;3.702;2023-02-02T21:39:07;24.33;;;9.65;;
25687;SDS011;17407;51.120;3.702;2023-02-02T21:41:49;24.33;;;8.40;;
25687;SDS011;17407;51.120;3.702;2023-02-02T21:44:19;25.33;;;8.68;;
25687;SDS011;17407;51.120;3.702;2023-02-02T21:46:47;25.13;;;8.18;;
25687;SDS011;17407;51.120;3.702;2023-02-02T21:49:19;17.88;;;6.38;;
25687;SDS011;17407;51.120;3.702;2023-02-02T21:51:49;21.98;;;6.93;;
25687;SDS011;17407;51.120;3.702;2023-02-02T21:56:44;24.98;;;6.82;;
25687;SDS011;17407;51.120;3.702;2023-02-02T21:59:11;19.40;;;7.38;;
25687;SDS011;17407;51.120;3.702;2023-02-02T22:01:42;29.08;;;8.23;;
25687;SDS011;17407;51.120;3.702;2023-02-02T22:09:22;17.85;;;6.68;;
25687;SDS011;17407;51.120;3.702;2023-02-02T22:16:55;18.02;;;4.97;;
25687;SDS011;17407;51.120;3.702;2023-02-02T22:21:50;17.02;;;6.18;;
25687;SDS011;17407;51.120;3.702;2023-02-02T22:24:16;13.98;;;4.80;;
25687;SDS011;17407;51.120;3.702;2023-02-02T22:26:42;16.63;;;4.93;;
25687;SDS011;17407;51.120;3.702;2023-02-02T22:29:11;18.38;;;5.28;;
25687;SDS011;17407;51.120;3.702;2023-02-02T22:31:41;17.75;;;4.72;;
25687;SDS011;17407;51.120;3.702;2023-02-02T22:34:07;21.67;;;6.03;;
25687;SDS011;17407;51.120;3.702;2023-02-02T22:36:33;19.17;;;4.85;;
25687;SDS011;17407;51.120;3.702;2023-02-02T22:38:58;20.60;;;5.03;;
25687;SDS011;17407;51.120;3.702;2023-02-02T22:41:24;18.77;;;4.90;;
25687;SDS011;17407;51.120;3.702;2023-02-02T22:43:49;25.20;;;6.95;;
25687;SDS011;17407;51.120;3.702;2023-02-02T22:46:15;13.93;;;5.38;;
25687;SDS011;17407;51.120;3.702;2023-02-02T22:48:41;12.40;;;4.95;;
25687;SDS011;17407;51.120;3.702;2023-02-02T22:51:06;16.50;;;5.70;;
25687;SDS011;17407;51.120;3.702;2023-02-02T22:53:32;22.83;;;4.93;;
25687;SDS011;17407;51.120;3.702;2023-02-02T22:55:58;22.17;;;4.82;;
25687;SDS011;17407;51.120;3.702;2023-02-02T22:58:23;10.60;;;4.28;;
25687;SDS011;17407;51.120;3.702;2023-02-02T23:00:49;17.05;;;5.05;;
25687;SDS011;17407;51.120;3.702;2023-02-02T23:03:15;16.98;;;4.97;;
25687;SDS011;17407;51.120;3.702;2023-02-02T23:05:41;18.25;;;5.47;;
25687;SDS011;17407;51.120;3.702;2023-02-02T23:08:06;23.30;;;6.00;;
25687;SDS011;17407;51.120;3.702;2023-02-02T23:10:32;16.83;;;4.82;;
25687;SDS011;17407;51.120;3.702;2023-02-02T23:13:00;20.33;;;5.07;;
25687;SDS011;17407;51.120;3.702;2023-02-02T23:15:27;17.45;;;5.35;;
25687;SDS011;17407;51.120;3.702;2023-02-02T23:17:54;19.88;;;6.32;;
25687;SDS011;17407;51.120;3.702;2023-02-02T23:20:21;19.52;;;6.20;;
25687;SDS011;17407;51.120;3.702;2023-02-02T23:22:47;21.15;;;6.03;;
25687;SDS011;17407;51.120;3.702;2023-02-02T23:25:13;16.05;;;6.97;;
25687;SDS011;17407;51.120;3.702;2023-02-02T23:27:40;20.13;;;6.22;;
25687;SDS011;17407;51.120;3.702;2023-02-02T23:30:06;20.75;;;5.65;;
25687;SDS011;17407;51.120;3.702;2023-02-02T23:32:33;24.48;;;7.07;;
25687;SDS011;17407;51.120;3.702;2023-02-02T23:34:59;24.17;;;5.65;;
25687;SDS011;17407;51.120;3.702;2023-02-02T23:37:25;22.52;;;7.85;;
25687;SDS011;17407;51.120;3.702;2023-02-02T23:39:50;24.00;;;6.97;;
25687;SDS011;17407;51.120;3.702;2023-02-02T23:42:16;25.70;;;6.28;;
25687;SDS011;17407;51.120;3.702;2023-02-02T23:44:42;16.90;;;6.13;;
25687;SDS011;17407;51.120;3.702;2023-02-02T23:47:08;20.38;;;6.25;;
25687;SDS011;17407;51.120;3.702;2023-02-02T23:49:34;20.33;;;5.85;;
25687;SDS011;17407;51.120;3.702;2023-02-02T23:52:00;15.93;;;5.28;;
25687;SDS011;17407;51.120;3.702;2023-02-02T23:54:26;16.90;;;5.07;;
25687;SDS011;17407;51.120;3.702;2023-02-02T23:56:53;17.45;;;4.95;;
25687;SDS011;17407;51.120;3.702;2023-02-02T23:59:19;19.20;;;6.63;;
